sensor_id;sensor_type;location;lat;lon;timestamp;temperature;humidity
26691;DHT22;14307;51.718;8.938;2022-10-18T00:00:05;14.90;99.90
26691;DHT22;14307;51.718;8.938;2022-10-18T00:02:36;14.80;99.90
26691;DHT22;14307;51.718;8.938;2022-10-18T00:05:04;14.80;99.90
26691;DHT22;14307;51.718;8.938;2022-10-18T00:07:30;14.70;99.90
26691;DHT22;14307;51.718;8.938;2022-10-18T00:09:58;14.70;99.90
26691;DHT22;14307;51.718;8.938;2022-10-18T00:12:24;14.70;99.90
26691;DHT22;14307;51.718;8.938;2022-10-18T00:14:51;14.70;99.90
26691;DHT22;14307;51.718;8.938;2022-10-18T00:17:18;14.70;99.90
26691;DHT22;14307;51.718;8.938;2022-10-18T00:19:44;14.70;99.90
26691;DHT22;14307;51.718;8.938;2022-10-18T00:22:12;14.70;99.90
26691;DHT22;14307;51.718;8.938;2022-10-18T00:24:38;14.70;99.90
26691;DHT22;14307;51.718;8.938;2022-10-18T00:27:05;14.70;99.90
26691;DHT22;14307;51.718;8.938;2022-10-18T00:29:32;14.70;99.90
26691;DHT22;14307;51.718;8.938;2022-10-18T00:31:59;14.70;99.90
26691;DHT22;14307;51.718;8.938;2022-10-18T00:34:25;14.80;99.90
26691;DHT22;14307;51.718;8.938;2022-10-18T00:36:52;14.80;99.90
26691;DHT22;14307;51.718;8.938;2022-10-18T00:39:21;14.90;99.90
26691;DHT22;14307;51.718;8.938;2022-10-18T00:41:48;14.90;99.90
26691;DHT22;14307;51.718;8.938;2022-10-18T00:46:43;14.80;99.90
26691;DHT22;14307;51.718;8.938;2022-10-18T00:49:22;14.80;99.90
26691;DHT22;14307;51.718;8.938;2022-10-18T00:54:37;14.80;99.90
26691;DHT22;14307;51.718;8.938;2022-10-18T00:57:05;14.60;99.90
26691;DHT22;14307;51.718;8.938;2022-10-18T00:59:32;14.60;99.90
26691;DHT22;14307;51.718;8.938;2022-10-18T01:02:00;14.60;99.90
26691;DHT22;14307;51.718;8.938;2022-10-18T01:04:27;14.50;99.90
26691;DHT22;14307;51.718;8.938;2022-10-18T01:18:19;14.70;99.90
26691;DHT22;14307;51.718;8.938;2022-10-18T01:29:31;14.60;99.90
26691;DHT22;14307;51.718;8.938;2022-10-18T01:32:13;14.60;99.90
26691;DHT22;14307;51.718;8.938;2022-10-18T01:34:43;14.60;99.90
26691;DHT22;14307;51.718;8.938;2022-10-18T01:37:15;14.70;99.90
26691;DHT22;14307;51.718;8.938;2022-10-18T01:39:45;14.60;99.90
26691;DHT22;14307;51.718;8.938;2022-10-18T01:42:16;14.60;99.90
26691;DHT22;14307;51.718;8.938;2022-10-18T01:44:44;14.60;99.90
26691;DHT22;14307;51.718;8.938;2022-10-18T01:47:13;14.60;99.90
26691;DHT22;14307;51.718;8.938;2022-10-18T01:49:40;14.60;99.90
26691;DHT22;14307;51.718;8.938;2022-10-18T01:52:14;14.60;99.90
26691;DHT22;14307;51.718;8.938;2022-10-18T01:54:46;14.60;99.90
26691;DHT22;14307;51.718;8.938;2022-10-18T01:57:36;14.50;99.90
26691;DHT22;14307;51.718;8.938;2022-10-18T02:02:56;14.40;99.90
26691;DHT22;14307;51.718;8.938;2022-10-18T02:05:30;14.30;99.90
26691;DHT22;14307;51.718;8.938;2022-10-18T02:11:10;14.30;99.90
26691;DHT22;14307;51.718;8.938;2022-10-18T02:13:41;14.30;99.90
26691;DHT22;14307;51.718;8.938;2022-10-18T02:16:19;14.30;99.90
26691;DHT22;14307;51.718;8.938;2022-10-18T02:18:56;14.30;99.90
26691;DHT22;14307;51.718;8.938;2022-10-18T02:21:24;14.30;99.90
26691;DHT22;14307;51.718;8.938;2022-10-18T02:23:53;14.30;99.90
26691;DHT22;14307;51.718;8.938;2022-10-18T02:26:21;14.40;99.90
26691;DHT22;14307;51.718;8.938;2022-10-18T02:28:48;14.30;99.90
26691;DHT22;14307;51.718;8.938;2022-10-18T02:31:35;14.30;99.90
26691;DHT22;14307;51.718;8.938;2022-10-18T02:36:44;14.40;99.90
26691;DHT22;14307;51.718;8.938;2022-10-18T02:39:15;14.50;99.90
26691;DHT22;14307;51.718;8.938;2022-10-18T02:41:43;14.50;99.90
26691;DHT22;14307;51.718;8.938;2022-10-18T02:44:10;14.60;99.90
26691;DHT22;14307;51.718;8.938;2022-10-18T02:46:38;14.60;99.90
26691;DHT22;14307;51.718;8.938;2022-10-18T02:49:05;14.60;99.90
26691;DHT22;14307;51.718;8.938;2022-10-18T02:51:32;14.50;99.90
26691;DHT22;14307;51.718;8.938;2022-10-18T02:53:59;14.40;99.90
26691;DHT22;14307;51.718;8.938;2022-10-18T02:56:25;14.30;99.90
26691;DHT22;14307;51.718;8.938;2022-10-18T02:58:52;14.20;99.90
26691;DHT22;14307;51.718;8.938;2022-10-18T03:01:19;14.20;99.90
26691;DHT22;14307;51.718;8.938;2022-10-18T03:03:46;14.20;99.90
26691;DHT22;14307;51.718;8.938;2022-10-18T03:06:13;14.20;99.90
26691;DHT22;14307;51.718;8.938;2022-10-18T03:08:40;14.30;99.90
26691;DHT22;14307;51.718;8.938;2022-10-18T03:11:07;14.20;99.90
26691;DHT22;14307;51.718;8.938;2022-10-18T03:13:34;14.30;99.90
26691;DHT22;14307;51.718;8.938;2022-10-18T03:16:00;14.30;99.90
26691;DHT22;14307;51.718;8.938;2022-10-18T03:18:27;14.30;99.90
26691;DHT22;14307;51.718;8.938;2022-10-18T03:20:54;14.30;99.90
26691;DHT22;14307;51.718;8.938;2022-10-18T03:23:21;14.50;99.90
26691;DHT22;14307;51.718;8.938;2022-10-18T03:25:47;14.50;99.90
26691;DHT22;14307;51.718;8.938;2022-10-18T03:28:14;14.50;99.90
26691;DHT22;14307;51.718;8.938;2022-10-18T03:30:41;14.50;99.90
26691;DHT22;14307;51.718;8.938;2022-10-18T03:33:08;14.50;99.90
26691;DHT22;14307;51.718;8.938;2022-10-18T03:35:34;14.60;99.90
26691;DHT22;14307;51.718;8.938;2022-10-18T03:38:01;14.60;99.90
26691;DHT22;14307;51.718;8.938;2022-10-18T03:40:28;14.60;99.90
26691;DHT22;14307;51.718;8.938;2022-10-18T03:42:57;14.50;99.90
26691;DHT22;14307;51.718;8.938;2022-10-18T03:45:24;14.40;99.90
26691;DHT22;14307;51.718;8.938;2022-10-18T03:47:56;14.30;99.90
26691;DHT22;14307;51.718;8.938;2022-10-18T03:50:23;14.50;99.90
26691;DHT22;14307;51.718;8.938;2022-10-18T03:52:50;14.40;99.90
26691;DHT22;14307;51.718;8.938;2022-10-18T03:55:16;14.40;99.90
26691;DHT22;14307;51.718;8.938;2022-10-18T03:57:43;14.40;99.90
26691;DHT22;14307;51.718;8.938;2022-10-18T04:00:10;14.40;99.90
26691;DHT22;14307;51.718;8.938;2022-10-18T04:02:38;14.40;99.90
26691;DHT22;14307;51.718;8.938;2022-10-18T04:05:05;14.30;99.90
26691;DHT22;14307;51.718;8.938;2022-10-18T04:07:33;14.30;99.90
26691;DHT22;14307;51.718;8.938;2022-10-18T04:10:05;14.20;99.90
26691;DHT22;14307;51.718;8.938;2022-10-18T04:12:32;14.40;99.90
26691;DHT22;14307;51.718;8.938;2022-10-18T04:14:59;14.40;99.90
26691;DHT22;14307;51.718;8.938;2022-10-18T04:17:26;14.50;99.90
26691;DHT22;14307;51.718;8.938;2022-10-18T04:19:53;14.40;99.90
26691;DHT22;14307;51.718;8.938;2022-10-18T04:22:20;14.40;99.90
26691;DHT22;14307;51.718;8.938;2022-10-18T04:24:46;14.30;99.90
26691;DHT22;14307;51.718;8.938;2022-10-18T04:27:13;14.30;99.90
26691;DHT22;14307;51.718;8.938;2022-10-18T04:29:40;14.20;99.90
26691;DHT22;14307;51.718;8.938;2022-10-18T04:32:07;14.20;99.90
26691;DHT22;14307;51.718;8.938;2022-10-18T04:34:33;14.20;99.90
26691;DHT22;14307;51.718;8.938;2022-10-18T04:37:00;14.10;99.90
26691;DHT22;14307;51.718;8.938;2022-10-18T04:39:27;14.00;99.90
26691;DHT22;14307;51.718;8.938;2022-10-18T04:41:53;14.00;99.90
26691;DHT22;14307;51.718;8.938;2022-10-18T04:44:20;14.00;99.90
26691;DHT22;14307;51.718;8.938;2022-10-18T04:46:47;14.00;99.90
26691;DHT22;14307;51.718;8.938;2022-10-18T04:49:14;14.00;99.90
26691;DHT22;14307;51.718;8.938;2022-10-18T04:51:41;14.00;99.90
26691;DHT22;14307;51.718;8.938;2022-10-18T04:54:07;14.00;99.90
26691;DHT22;14307;51.718;8.938;2022-10-18T04:56:34;14.10;99.90
26691;DHT22;14307;51.718;8.938;2022-10-18T04:59:01;14.10;99.90
26691;DHT22;14307;51.718;8.938;2022-10-18T05:01:27;14.00;99.90
26691;DHT22;14307;51.718;8.938;2022-10-18T05:03:55;14.00;99.90
26691;DHT22;14307;51.718;8.938;2022-10-18T05:06:21;14.00;99.90
26691;DHT22;14307;51.718;8.938;2022-10-18T05:08:50;14.00;99.90
26691;DHT22;14307;51.718;8.938;2022-10-18T05:11:17;14.00;99.90
26691;DHT22;14307;51.718;8.938;2022-10-18T05:13:44;14.00;99.90
26691;DHT22;14307;51.718;8.938;2022-10-18T05:16:15;14.00;99.90
26691;DHT22;14307;51.718;8.938;2022-10-18T05:18:42;14.10;99.90
26691;DHT22;14307;51.718;8.938;2022-10-18T05:21:09;14.10;99.90
26691;DHT22;14307;51.718;8.938;2022-10-18T05:23:35;14.20;99.90
26691;DHT22;14307;51.718;8.938;2022-10-18T05:26:04;14.10;99.90
26691;DHT22;14307;51.718;8.938;2022-10-18T05:28:31;14.00;99.90
26691;DHT22;14307;51.718;8.938;2022-10-18T05:31:07;14.00;99.90
26691;DHT22;14307;51.718;8.938;2022-10-18T05:33:34;14.00;99.90
26691;DHT22;14307;51.718;8.938;2022-10-18T05:36:01;14.00;99.90
26691;DHT22;14307;51.718;8.938;2022-10-18T05:38:28;14.10;99.90
26691;DHT22;14307;51.718;8.938;2022-10-18T05:40:58;14.10;99.90
26691;DHT22;14307;51.718;8.938;2022-10-18T05:43:28;14.10;99.90
26691;DHT22;14307;51.718;8.938;2022-10-18T05:45:55;14.00;99.90
26691;DHT22;14307;51.718;8.938;2022-10-18T05:48:21;14.10;99.90
26691;DHT22;14307;51.718;8.938;2022-10-18T05:50:48;14.10;99.90
26691;DHT22;14307;51.718;8.938;2022-10-18T05:53:15;14.10;99.90
26691;DHT22;14307;51.718;8.938;2022-10-18T05:56:02;14.20;99.90
26691;DHT22;14307;51.718;8.938;2022-10-18T05:58:29;14.20;99.90
26691;DHT22;14307;51.718;8.938;2022-10-18T06:01:00;14.20;99.90
26691;DHT22;14307;51.718;8.938;2022-10-18T06:03:28;14.20;99.90
26691;DHT22;14307;51.718;8.938;2022-10-18T06:06:08;14.20;99.90
26691;DHT22;14307;51.718;8.938;2022-10-18T06:08:36;14.30;99.90
26691;DHT22;14307;51.718;8.938;2022-10-18T06:11:11;14.20;99.90
26691;DHT22;14307;51.718;8.938;2022-10-18T06:13:43;14.10;99.90
26691;DHT22;14307;51.718;8.938;2022-10-18T06:16:11;14.10;99.90
26691;DHT22;14307;51.718;8.938;2022-10-18T06:18:38;14.20;99.90
26691;DHT22;14307;51.718;8.938;2022-10-18T06:21:05;14.20;99.90
26691;DHT22;14307;51.718;8.938;2022-10-18T06:23:33;14.20;99.90
26691;DHT22;14307;51.718;8.938;2022-10-18T06:26:01;14.10;99.90
26691;DHT22;14307;51.718;8.938;2022-10-18T06:28:29;14.10;99.90
26691;DHT22;14307;51.718;8.938;2022-10-18T06:30:56;14.20;99.90
26691;DHT22;14307;51.718;8.938;2022-10-18T06:33:23;14.20;99.90
26691;DHT22;14307;51.718;8.938;2022-10-18T06:36:01;14.20;99.90
26691;DHT22;14307;51.718;8.938;2022-10-18T06:38:29;14.20;99.90
26691;DHT22;14307;51.718;8.938;2022-10-18T06:40:56;14.10;99.90
26691;DHT22;14307;51.718;8.938;2022-10-18T06:43:23;14.10;99.90
26691;DHT22;14307;51.718;8.938;2022-10-18T06:45:51;14.20;99.90
26691;DHT22;14307;51.718;8.938;2022-10-18T06:48:18;14.20;99.90
26691;DHT22;14307;51.718;8.938;2022-10-18T06:51:00;14.20;99.90
26691;DHT22;14307;51.718;8.938;2022-10-18T06:53:29;14.20;99.90
26691;DHT22;14307;51.718;8.938;2022-10-18T06:56:02;14.20;99.90
26691;DHT22;14307;51.718;8.938;2022-10-18T06:58:29;14.20;99.90
26691;DHT22;14307;51.718;8.938;2022-10-18T07:00:56;14.10;99.90
26691;DHT22;14307;51.718;8.938;2022-10-18T07:03:23;14.20;99.90
26691;DHT22;14307;51.718;8.938;2022-10-18T07:05:50;14.20;99.90
26691;DHT22;14307;51.718;8.938;2022-10-18T07:08:17;14.20;99.90
26691;DHT22;14307;51.718;8.938;2022-10-18T07:10:54;14.30;99.90
26691;DHT22;14307;51.718;8.938;2022-10-18T07:13:21;14.30;99.90
26691;DHT22;14307;51.718;8.938;2022-10-18T07:18:33;14.40;99.90
26691;DHT22;14307;51.718;8.938;2022-10-18T07:21:01;14.40;99.90
26691;DHT22;14307;51.718;8.938;2022-10-18T07:23:30;14.20;99.90
26691;DHT22;14307;51.718;8.938;2022-10-18T07:25:57;14.20;99.90
26691;DHT22;14307;51.718;8.938;2022-10-18T07:28:24;14.10;99.90
26691;DHT22;14307;51.718;8.938;2022-10-18T07:30:51;14.20;99.90
26691;DHT22;14307;51.718;8.938;2022-10-18T07:33:18;14.20;99.90
26691;DHT22;14307;51.718;8.938;2022-10-18T07:35:46;14.30;99.90
26691;DHT22;14307;51.718;8.938;2022-10-18T07:38:13;14.30;99.90
26691;DHT22;14307;51.718;8.938;2022-10-18T07:40:40;14.40;99.90
26691;DHT22;14307;51.718;8.938;2022-10-18T07:43:06;14.60;99.90
26691;DHT22;14307;51.718;8.938;2022-10-18T07:45:37;14.60;99.90
26691;DHT22;14307;51.718;8.938;2022-10-18T07:48:04;14.70;99.90
26691;DHT22;14307;51.718;8.938;2022-10-18T07:50:31;14.70;99.90
26691;DHT22;14307;51.718;8.938;2022-10-18T07:52:57;14.90;99.90
26691;DHT22;14307;51.718;8.938;2022-10-18T07:55:24;15.00;99.90
26691;DHT22;14307;51.718;8.938;2022-10-18T07:57:51;15.10;99.90
26691;DHT22;14307;51.718;8.938;2022-10-18T08:00:17;15.10;99.90
26691;DHT22;14307;51.718;8.938;2022-10-18T08:02:44;15.20;99.90
26691;DHT22;14307;51.718;8.938;2022-10-18T08:05:11;15.20;99.90
26691;DHT22;14307;51.718;8.938;2022-10-18T08:07:37;15.20;99.90
26691;DHT22;14307;51.718;8.938;2022-10-18T08:10:04;15.20;99.90
26691;DHT22;14307;51.718;8.938;2022-10-18T08:12:31;15.20;99.90
26691;DHT22;14307;51.718;8.938;2022-10-18T08:14:58;15.20;99.90
26691;DHT22;14307;51.718;8.938;2022-10-18T08:17:25;15.20;99.90
26691;DHT22;14307;51.718;8.938;2022-10-18T08:19:51;15.20;99.90
26691;DHT22;14307;51.718;8.938;2022-10-18T08:22:38;15.20;99.90
26691;DHT22;14307;51.718;8.938;2022-10-18T08:25:05;15.20;99.90
26691;DHT22;14307;51.718;8.938;2022-10-18T08:27:31;15.30;99.90
26691;DHT22;14307;51.718;8.938;2022-10-18T08:29:59;15.30;99.90
26691;DHT22;14307;51.718;8.938;2022-10-18T08:34:58;15.30;99.90
26691;DHT22;14307;51.718;8.938;2022-10-18T08:37:24;15.30;99.90
26691;DHT22;14307;51.718;8.938;2022-10-18T08:39:51;15.30;99.90
26691;DHT22;14307;51.718;8.938;2022-10-18T08:45:18;15.20;99.90
26691;DHT22;14307;51.718;8.938;2022-10-18T08:48:06;15.20;99.90
26691;DHT22;14307;51.718;8.938;2022-10-18T08:50:35;15.30;99.90
26691;DHT22;14307;51.718;8.938;2022-10-18T08:55:49;15.30;99.90
26691;DHT22;14307;51.718;8.938;2022-10-18T08:58:23;15.40;99.90
26691;DHT22;14307;51.718;8.938;2022-10-18T09:06:38;15.40;99.90
26691;DHT22;14307;51.718;8.938;2022-10-18T09:09:34;15.40;99.90
26691;DHT22;14307;51.718;8.938;2022-10-18T09:20:24;15.50;99.90
26691;DHT22;14307;51.718;8.938;2022-10-18T09:22:54;15.50;99.90
26691;DHT22;14307;51.718;8.938;2022-10-18T09:25:30;15.60;99.90
26691;DHT22;14307;51.718;8.938;2022-10-18T09:36:02;16.00;99.90
26691;DHT22;14307;51.718;8.938;2022-10-18T09:38:52;16.00;99.90
26691;DHT22;14307;51.718;8.938;2022-10-18T09:41:29;15.90;99.90
26691;DHT22;14307;51.718;8.938;2022-10-18T09:44:02;15.80;99.90
26691;DHT22;14307;51.718;8.938;2022-10-18T09:46:37;15.90;99.90
26691;DHT22;14307;51.718;8.938;2022-10-18T09:49:10;15.90;99.90
26691;DHT22;14307;51.718;8.938;2022-10-18T09:51:42;16.00;99.90
26691;DHT22;14307;51.718;8.938;2022-10-18T09:54:13;15.90;99.90
26691;DHT22;14307;51.718;8.938;2022-10-18T10:02:02;15.70;99.90
26691;DHT22;14307;51.718;8.938;2022-10-18T10:04:29;15.70;99.90
26691;DHT22;14307;51.718;8.938;2022-10-18T10:06:59;15.70;99.90
26691;DHT22;14307;51.718;8.938;2022-10-18T10:09:48;15.70;99.90
26691;DHT22;14307;51.718;8.938;2022-10-18T10:12:29;15.70;99.90
26691;DHT22;14307;51.718;8.938;2022-10-18T10:15:23;15.70;99.90
26691;DHT22;14307;51.718;8.938;2022-10-18T10:18:03;15.90;99.90
26691;DHT22;14307;51.718;8.938;2022-10-18T10:20:51;15.90;99.90
26691;DHT22;14307;51.718;8.938;2022-10-18T10:23:44;16.00;99.90
26691;DHT22;14307;51.718;8.938;2022-10-18T10:26:23;16.00;99.90
26691;DHT22;14307;51.718;8.938;2022-10-18T10:28:51;15.90;99.90
26691;DHT22;14307;51.718;8.938;2022-10-18T10:36:25;15.90;99.90
26691;DHT22;14307;51.718;8.938;2022-10-18T10:39:05;16.10;99.90
26691;DHT22;14307;51.718;8.938;2022-10-18T10:41:32;16.10;99.90
26691;DHT22;14307;51.718;8.938;2022-10-18T10:44:03;16.00;99.90
26691;DHT22;14307;51.718;8.938;2022-10-18T10:46:35;16.10;99.90
26691;DHT22;14307;51.718;8.938;2022-10-18T10:49:02;16.10;99.90
26691;DHT22;14307;51.718;8.938;2022-10-18T10:51:58;16.10;99.90
26691;DHT22;14307;51.718;8.938;2022-10-18T10:54:35;16.00;99.90
26691;DHT22;14307;51.718;8.938;2022-10-18T10:57:15;15.90;99.90
26691;DHT22;14307;51.718;8.938;2022-10-18T10:59:48;15.80;99.90
26691;DHT22;14307;51.718;8.938;2022-10-18T11:04:46;15.90;99.90
26691;DHT22;14307;51.718;8.938;2022-10-18T11:13:00;16.10;99.90
26691;DHT22;14307;51.718;8.938;2022-10-18T11:15:33;16.10;99.90
26691;DHT22;14307;51.718;8.938;2022-10-18T11:18:20;16.10;99.90
26691;DHT22;14307;51.718;8.938;2022-10-18T11:21:08;16.10;99.90
26691;DHT22;14307;51.718;8.938;2022-10-18T11:23:38;16.00;99.90
26691;DHT22;14307;51.718;8.938;2022-10-18T11:31:31;16.20;99.90
26691;DHT22;14307;51.718;8.938;2022-10-18T11:37:12;16.50;99.90
26691;DHT22;14307;51.718;8.938;2022-10-18T11:40:13;16.70;99.90
26691;DHT22;14307;51.718;8.938;2022-10-18T11:42:46;16.60;99.90
26691;DHT22;14307;51.718;8.938;2022-10-18T11:45:40;16.70;99.90
26691;DHT22;14307;51.718;8.938;2022-10-18T12:05:18;16.80;99.90
26691;DHT22;14307;51.718;8.938;2022-10-18T12:08:05;16.70;99.90
26691;DHT22;14307;51.718;8.938;2022-10-18T12:10:35;16.70;99.90
26691;DHT22;14307;51.718;8.938;2022-10-18T12:13:31;16.70;99.90
26691;DHT22;14307;51.718;8.938;2022-10-18T12:16:02;16.70;99.90
26691;DHT22;14307;51.718;8.938;2022-10-18T12:18:30;16.80;99.90
26691;DHT22;14307;51.718;8.938;2022-10-18T12:20:58;17.00;99.90
26691;DHT22;14307;51.718;8.938;2022-10-18T12:23:43;17.30;99.90
26691;DHT22;14307;51.718;8.938;2022-10-18T12:26:11;17.40;99.90
26691;DHT22;14307;51.718;8.938;2022-10-18T12:28:55;17.30;99.90
26691;DHT22;14307;51.718;8.938;2022-10-18T12:31:29;17.20;99.90
26691;DHT22;14307;51.718;8.938;2022-10-18T12:34:00;17.20;99.90
26691;DHT22;14307;51.718;8.938;2022-10-18T12:39:26;17.60;99.90
26691;DHT22;14307;51.718;8.938;2022-10-18T12:42:30;17.60;99.90
26691;DHT22;14307;51.718;8.938;2022-10-18T12:45:12;17.30;99.90
26691;DHT22;14307;51.718;8.938;2022-10-18T12:47:43;17.00;99.90
26691;DHT22;14307;51.718;8.938;2022-10-18T12:50:36;16.80;99.90
26691;DHT22;14307;51.718;8.938;2022-10-18T12:53:17;16.60;99.90
26691;DHT22;14307;51.718;8.938;2022-10-18T12:55:47;16.80;99.90
26691;DHT22;14307;51.718;8.938;2022-10-18T13:16:59;17.80;99.90
26691;DHT22;14307;51.718;8.938;2022-10-18T13:19:56;17.90;99.90
26691;DHT22;14307;51.718;8.938;2022-10-18T13:33:46;17.60;99.90
26691;DHT22;14307;51.718;8.938;2022-10-18T13:39:03;17.10;99.90
26691;DHT22;14307;51.718;8.938;2022-10-18T14:03:44;16.90;99.90
26691;DHT22;14307;51.718;8.938;2022-10-18T14:06:36;16.90;99.90
26691;DHT22;14307;51.718;8.938;2022-10-18T14:09:20;16.70;99.90
26691;DHT22;14307;51.718;8.938;2022-10-18T14:12:20;16.80;99.90
26691;DHT22;14307;51.718;8.938;2022-10-18T14:15:01;16.80;99.90
26691;DHT22;14307;51.718;8.938;2022-10-18T14:17:38;16.40;99.90
26691;DHT22;14307;51.718;8.938;2022-10-18T14:20:37;16.40;99.90
26691;DHT22;14307;51.718;8.938;2022-10-18T14:23:29;16.30;99.90
26691;DHT22;14307;51.718;8.938;2022-10-18T14:26:14;16.10;99.90
26691;DHT22;14307;51.718;8.938;2022-10-18T14:28:41;16.10;99.90
26691;DHT22;14307;51.718;8.938;2022-10-18T14:31:25;16.10;99.90
26691;DHT22;14307;51.718;8.938;2022-10-18T14:33:54;16.00;99.90
26691;DHT22;14307;51.718;8.938;2022-10-18T14:36:35;16.10;99.90
26691;DHT22;14307;51.718;8.938;2022-10-18T14:39:04;16.10;99.90
26691;DHT22;14307;51.718;8.938;2022-10-18T14:41:36;16.10;99.90
26691;DHT22;14307;51.718;8.938;2022-10-18T14:46:44;16.10;99.90
26691;DHT22;14307;51.718;8.938;2022-10-18T14:49:12;16.20;99.90
26691;DHT22;14307;51.718;8.938;2022-10-18T14:51:41;16.20;99.90
26691;DHT22;14307;51.718;8.938;2022-10-18T14:54:31;16.20;99.90
26691;DHT22;14307;51.718;8.938;2022-10-18T14:56:59;16.10;99.90
26691;DHT22;14307;51.718;8.938;2022-10-18T14:59:29;15.90;99.90
26691;DHT22;14307;51.718;8.938;2022-10-18T15:02:02;15.90;99.90
26691;DHT22;14307;51.718;8.938;2022-10-18T15:04:30;15.90;99.90
26691;DHT22;14307;51.718;8.938;2022-10-18T15:07:12;15.90;99.90
26691;DHT22;14307;51.718;8.938;2022-10-18T15:09:40;16.00;99.90
26691;DHT22;14307;51.718;8.938;2022-10-18T15:12:07;16.00;99.90
26691;DHT22;14307;51.718;8.938;2022-10-18T15:14:39;15.90;99.90
26691;DHT22;14307;51.718;8.938;2022-10-18T15:20:16;16.00;99.90
26691;DHT22;14307;51.718;8.938;2022-10-18T15:22:43;15.90;99.90
26691;DHT22;14307;51.718;8.938;2022-10-18T15:27:52;15.80;99.90
26691;DHT22;14307;51.718;8.938;2022-10-18T15:30:35;15.70;99.90
26691;DHT22;14307;51.718;8.938;2022-10-18T15:33:04;15.60;99.90
26691;DHT22;14307;51.718;8.938;2022-10-18T15:35:37;15.50;99.90
26691;DHT22;14307;51.718;8.938;2022-10-18T15:38:27;15.50;99.90
26691;DHT22;14307;51.718;8.938;2022-10-18T15:40:54;15.40;99.90
26691;DHT22;14307;51.718;8.938;2022-10-18T15:45:59;15.40;99.90
26691;DHT22;14307;51.718;8.938;2022-10-18T15:48:39;15.30;99.90
26691;DHT22;14307;51.718;8.938;2022-10-18T15:51:09;15.30;99.90
26691;DHT22;14307;51.718;8.938;2022-10-18T15:56:33;15.20;99.90
26691;DHT22;14307;51.718;8.938;2022-10-18T15:59:26;15.20;99.90
26691;DHT22;14307;51.718;8.938;2022-10-18T16:01:54;15.10;99.90
26691;DHT22;14307;51.718;8.938;2022-10-18T16:04:30;15.00;99.90
26691;DHT22;14307;51.718;8.938;2022-10-18T16:06:58;14.80;99.90
26691;DHT22;14307;51.718;8.938;2022-10-18T16:09:26;14.80;99.90
26691;DHT22;14307;51.718;8.938;2022-10-18T16:11:53;14.80;99.90
26691;DHT22;14307;51.718;8.938;2022-10-18T16:14:24;14.70;99.90
26691;DHT22;14307;51.718;8.938;2022-10-18T16:16:58;14.60;99.90
26691;DHT22;14307;51.718;8.938;2022-10-18T16:19:29;14.60;99.90
26691;DHT22;14307;51.718;8.938;2022-10-18T16:21:56;14.50;99.90
26691;DHT22;14307;51.718;8.938;2022-10-18T16:24:26;14.30;99.90
26691;DHT22;14307;51.718;8.938;2022-10-18T16:26:53;14.20;99.90
26691;DHT22;14307;51.718;8.938;2022-10-18T16:29:22;14.10;99.90
26691;DHT22;14307;51.718;8.938;2022-10-18T16:31:54;13.90;99.90
26691;DHT22;14307;51.718;8.938;2022-10-18T16:34:24;13.80;99.90
26691;DHT22;14307;51.718;8.938;2022-10-18T16:36:52;13.60;99.90
26691;DHT22;14307;51.718;8.938;2022-10-18T16:39:20;13.50;99.90
26691;DHT22;14307;51.718;8.938;2022-10-18T16:41:47;13.50;99.90
26691;DHT22;14307;51.718;8.938;2022-10-18T16:44:14;13.30;99.90
26691;DHT22;14307;51.718;8.938;2022-10-18T16:46:42;13.30;99.90
26691;DHT22;14307;51.718;8.938;2022-10-18T16:49:20;13.00;99.90
26691;DHT22;14307;51.718;8.938;2022-10-18T16:51:50;12.80;99.90
26691;DHT22;14307;51.718;8.938;2022-10-18T16:54:16;12.60;99.90
26691;DHT22;14307;51.718;8.938;2022-10-18T16:56:43;12.50;99.90
26691;DHT22;14307;51.718;8.938;2022-10-18T16:59:26;12.40;99.90
26691;DHT22;14307;51.718;8.938;2022-10-18T17:01:53;12.40;99.90
26691;DHT22;14307;51.718;8.938;2022-10-18T17:04:20;12.30;99.90
26691;DHT22;14307;51.718;8.938;2022-10-18T17:06:47;12.20;99.90
26691;DHT22;14307;51.718;8.938;2022-10-18T17:09:15;12.10;99.90
26691;DHT22;14307;51.718;8.938;2022-10-18T17:11:41;12.10;99.90
26691;DHT22;14307;51.718;8.938;2022-10-18T17:14:08;12.00;99.90
26691;DHT22;14307;51.718;8.938;2022-10-18T17:16:36;12.10;99.90
26691;DHT22;14307;51.718;8.938;2022-10-18T17:19:06;11.90;99.90
26691;DHT22;14307;51.718;8.938;2022-10-18T17:21:33;11.80;99.90
26691;DHT22;14307;51.718;8.938;2022-10-18T17:24:00;11.80;99.90
26691;DHT22;14307;51.718;8.938;2022-10-18T17:26:28;11.80;99.90
26691;DHT22;14307;51.718;8.938;2022-10-18T17:28:59;11.70;99.90
26691;DHT22;14307;51.718;8.938;2022-10-18T17:31:27;11.70;99.90
26691;DHT22;14307;51.718;8.938;2022-10-18T17:33:54;11.50;99.90
26691;DHT22;14307;51.718;8.938;2022-10-18T17:36:21;11.30;99.90
26691;DHT22;14307;51.718;8.938;2022-10-18T17:38:52;11.40;99.90
26691;DHT22;14307;51.718;8.938;2022-10-18T17:41:20;11.40;99.90
26691;DHT22;14307;51.718;8.938;2022-10-18T17:43:47;11.40;99.90
26691;DHT22;14307;51.718;8.938;2022-10-18T17:46:14;11.30;99.90
26691;DHT22;14307;51.718;8.938;2022-10-18T17:48:41;11.20;99.90
26691;DHT22;14307;51.718;8.938;2022-10-18T17:51:13;11.10;99.90
26691;DHT22;14307;51.718;8.938;2022-10-18T17:53:41;11.00;99.90
26691;DHT22;14307;51.718;8.938;2022-10-18T17:56:10;10.90;99.90
26691;DHT22;14307;51.718;8.938;2022-10-18T17:58:37;10.70;99.90
26691;DHT22;14307;51.718;8.938;2022-10-18T18:01:13;10.70;99.90
26691;DHT22;14307;51.718;8.938;2022-10-18T18:03:40;10.60;99.90
26691;DHT22;14307;51.718;8.938;2022-10-18T18:08:40;10.40;99.90
26691;DHT22;14307;51.718;8.938;2022-10-18T18:11:07;10.30;99.90
26691;DHT22;14307;51.718;8.938;2022-10-18T18:13:34;10.20;99.90
26691;DHT22;14307;51.718;8.938;2022-10-18T18:16:11;10.00;99.90
26691;DHT22;14307;51.718;8.938;2022-10-18T18:18:38;10.10;99.90
26691;DHT22;14307;51.718;8.938;2022-10-18T18:21:05;9.90;99.90
26691;DHT22;14307;51.718;8.938;2022-10-18T18:23:31;9.80;99.90
26691;DHT22;14307;51.718;8.938;2022-10-18T18:25:58;9.80;99.90
26691;DHT22;14307;51.718;8.938;2022-10-18T18:28:25;9.80;99.90
26691;DHT22;14307;51.718;8.938;2022-10-18T18:30:52;9.90;99.90
26691;DHT22;14307;51.718;8.938;2022-10-18T18:33:19;9.70;99.90
26691;DHT22;14307;51.718;8.938;2022-10-18T18:35:56;9.60;99.90
26691;DHT22;14307;51.718;8.938;2022-10-18T18:38:23;9.60;99.90
26691;DHT22;14307;51.718;8.938;2022-10-18T18:43:30;9.60;99.90
26691;DHT22;14307;51.718;8.938;2022-10-18T18:45:57;9.50;99.90
26691;DHT22;14307;51.718;8.938;2022-10-18T18:48:25;9.50;99.90
26691;DHT22;14307;51.718;8.938;2022-10-18T18:50:53;9.40;99.90
26691;DHT22;14307;51.718;8.938;2022-10-18T18:53:20;9.20;99.90
26691;DHT22;14307;51.718;8.938;2022-10-18T18:55:46;9.30;99.90
26691;DHT22;14307;51.718;8.938;2022-10-18T18:58:15;9.20;99.90
26691;DHT22;14307;51.718;8.938;2022-10-18T19:00:42;9.10;99.90
26691;DHT22;14307;51.718;8.938;2022-10-18T19:03:10;9.10;99.90